createdAt,value
2022-10-17T05:11:20.394Z,97708.09
2022-10-17T05:12:22.223Z,97707.69
2022-10-17T05:13:24.015Z,97707.06
2022-10-17T05:14:25.802Z,97709.50
2022-10-17T05:15:27.688Z,97706.84
2022-10-17T05:16:29.763Z,97710.84
2022-10-17T05:17:31.612Z,97713.84
2022-10-17T05:18:33.448Z,97716.47
2022-10-17T05:19:35.217Z,97711.84
2022-10-17T05:20:37.987Z,97716.50
2022-10-17T05:21:39.857Z,97716.56
2022-10-17T05:22:42.208Z,97711.94
2022-10-17T05:23:44.202Z,97723.38
2022-10-17T05:24:46.121Z,97712.31
2022-10-17T05:25:47.943Z,97718.16
2022-10-17T05:26:52.876Z,97713.53
2022-10-17T05:27:54.709Z,97720.41
2022-10-17T05:28:56.530Z,97724.44
2022-10-17T05:29:58.341Z,97716.38
2022-10-17T05:31:03.648Z,97718.78
2022-10-17T05:32:06.733Z,97723.22
2022-10-17T05:33:09.493Z,97719.00
2022-10-17T05:34:13.196Z,97722.25
2022-10-17T05:35:16.154Z,97723.66
2022-10-17T05:36:18.076Z,97724.63
2022-10-17T05:37:20.799Z,97723.66
2022-10-17T05:38:22.606Z,97722.25
2022-10-17T05:39:24.559Z,97722.63
2022-10-17T05:40:26.321Z,97728.25
2022-10-17T05:41:28.109Z,97733.06
2022-10-17T05:42:30.108Z,97735.88
2022-10-17T05:43:32.818Z,97744.34
2022-10-17T05:44:34.570Z,97729.41
2022-10-17T05:45:37.103Z,97733.22
2022-10-17T05:46:38.931Z,97737.88
2022-10-17T05:47:41.303Z,97739.28
2022-10-17T05:48:43.052Z,97739.09
2022-10-17T05:49:50.029Z,97742.53
2022-10-17T05:51:01.140Z,97744.94
2022-10-17T05:52:02.970Z,97747.19
2022-10-17T05:53:05.812Z,97744.34
2022-10-17T05:54:07.764Z,97749.97
2022-10-17T05:55:09.775Z,97747.09
2022-10-17T05:56:12.736Z,97747.72
2022-10-17T05:57:14.567Z,97756.00
2022-10-17T05:58:22.133Z,97754.63
2022-10-17T05:59:28.898Z,97751.81
2022-10-17T06:00:30.674Z,97758.03
2022-10-17T06:01:32.568Z,97750.38
2022-10-17T06:02:34.561Z,97753.81
2022-10-17T06:03:36.342Z,97760.03
2022-10-17T06:04:38.249Z,97754.00
2022-10-17T06:05:40.026Z,97756.00
2022-10-17T06:06:41.820Z,97760.81
2022-10-17T06:07:43.846Z,97758.19
2022-10-17T06:08:46.245Z,97755.41
2022-10-17T06:09:48.053Z,97753.56
2022-10-17T06:10:51.007Z,97758.44
2022-10-17T06:11:52.862Z,97760.03
2022-10-17T06:12:57.962Z,97756.00
2022-10-17T06:13:59.871Z,97758.81
2022-10-17T06:15:01.644Z,97761.84
2022-10-17T06:16:03.560Z,97760.84
2022-10-17T06:17:05.381Z,97767.72
2022-10-17T06:18:07.136Z,97760.47
2022-10-17T06:19:08.971Z,97766.31
2022-10-17T06:20:10.889Z,97768.50
2022-10-17T06:21:15.453Z,97769.31
2022-10-17T06:22:17.373Z,97779.16
2022-10-17T06:23:19.218Z,97769.53
2022-10-17T06:24:21.102Z,97776.97
2022-10-17T06:25:22.829Z,97775.78
2022-10-17T06:26:24.594Z,97776.97
2022-10-17T06:27:27.165Z,97779.78
2022-10-17T06:28:29.306Z,97780.63
2022-10-17T06:29:31.188Z,97778.97
2022-10-17T06:30:33.025Z,97769.72
2022-10-17T06:31:34.962Z,97770.50
2022-10-17T06:32:36.747Z,97779.59
2022-10-17T06:33:39.232Z,97777.41
2022-10-17T06:34:44.436Z,97776.59
2022-10-17T06:35:50.932Z,97773.16
2022-10-17T06:36:53.379Z,97782.84
2022-10-17T06:37:55.186Z,97776.59
2022-10-17T06:38:57.081Z,97783.06
2022-10-17T06:39:59.095Z,97784.69
2022-10-17T06:41:09.113Z,97781.44
2022-10-17T06:42:10.936Z,97784.06
2022-10-17T06:43:12.842Z,97780.66
2022-10-17T06:44:14.740Z,97780.66
2022-10-17T06:45:16.480Z,97782.66
2022-10-17T06:46:19.123Z,97775.38
2022-10-17T06:47:20.986Z,97777.38
2022-10-17T06:48:22.758Z,97780.81
2022-10-17T06:49:24.701Z,97781.22
2022-10-17T06:50:26.603Z,97781.00
2022-10-17T06:51:28.401Z,97784.25
2022-10-17T06:52:30.296Z,97783.06
2022-10-17T06:53:33.519Z,97784.69
2022-10-17T06:54:35.576Z,97785.69
2022-10-17T06:55:37.328Z,97782.47
2022-10-17T06:56:39.119Z,97790.72
2022-10-17T06:57:40.949Z,97778.47
2022-10-17T06:58:42.872Z,97788.09
2022-10-17T06:59:44.689Z,97781.06
2022-10-17T07:00:46.617Z,97784.06
2022-10-17T07:01:48.481Z,97782.06
2022-10-17T07:02:50.328Z,97782.25
2022-10-17T07:03:52.620Z,97780.25
2022-10-17T07:04:54.451Z,97792.78
2022-10-17T07:05:56.435Z,97782.91
2022-10-17T07:08:05.707Z,97778.28
2022-10-17T07:09:07.620Z,97776.66
2022-10-17T07:10:09.596Z,97784.53
2022-10-17T07:11:13.593Z,97790.56
2022-10-17T07:12:15.368Z,97783.53
2022-10-17T07:13:17.644Z,97785.97
2022-10-17T07:14:19.387Z,97784.16
2022-10-17T07:15:21.225Z,97784.53
2022-10-17T07:16:23.305Z,97782.69
2022-10-17T07:17:25.336Z,97780.72
2022-10-17T07:18:27.066Z,97781.09
2022-10-17T07:19:28.858Z,97774.03
2022-10-17T07:20:30.764Z,97779.72
2022-10-17T07:21:36.560Z,97781.13
2022-10-17T07:22:40.900Z,97771.06
2022-10-17T07:23:42.768Z,97776.28
2022-10-17T07:24:44.607Z,97774.28
2022-10-17T07:25:46.438Z,97765.03
2022-10-17T07:26:48.243Z,97775.34
2022-10-17T07:27:50.447Z,97765.28
2022-10-17T07:28:53.523Z,97770.75
2022-10-17T07:29:55.390Z,97769.16
2022-10-17T07:30:57.179Z,97765.13
2022-10-17T07:31:58.967Z,97768.78
2022-10-17T07:33:00.766Z,97763.56
2022-10-17T07:34:02.817Z,97762.41
2022-10-17T07:35:04.707Z,97772.91
2022-10-17T07:36:07.146Z,97772.13
2022-10-17T07:37:10.405Z,97768.50
2022-10-17T07:38:12.176Z,97757.81
2022-10-17T07:39:14.039Z,97759.63
2022-10-17T07:40:15.884Z,97762.47
2022-10-17T07:41:21.802Z,97762.03
2022-10-17T07:42:23.961Z,97765.28
2022-10-17T07:43:26.767Z,97766.09
2022-10-17T07:44:28.575Z,97758.44
2022-10-17T07:45:30.477Z,97756.22
2022-10-17T07:46:32.414Z,97753.00
2022-10-17T07:47:36.156Z,97754.81
2022-10-17T07:48:39.385Z,97764.28
2022-10-17T07:49:42.956Z,97767.31
2022-10-17T07:50:44.749Z,97763.47
2022-10-17T07:51:48.091Z,97759.97
2022-10-17T07:52:49.884Z,97765.28
2022-10-17T07:53:51.674Z,97766.47
2022-10-17T07:54:53.444Z,97762.03
2022-10-17T07:55:55.190Z,97756.38
2022-10-17T07:56:57.046Z,97763.66
2022-10-17T07:58:00.763Z,97760.81
2022-10-17T07:59:05.244Z,97764.06
2022-10-17T08:00:10.417Z,97753.94
2022-10-17T08:01:15.819Z,97758.00
2022-10-17T08:02:23.079Z,97756.56
2022-10-17T08:03:24.777Z,97762.66
2022-10-17T08:04:26.759Z,97757.41
2022-10-17T08:05:29.449Z,97749.91
2022-10-17T08:06:31.328Z,97746.66
2022-10-17T08:07:33.281Z,97753.09
2022-10-17T08:08:35.112Z,97746.22
2022-10-17T08:09:36.947Z,97747.03
2022-10-17T08:10:38.995Z,97754.50
2022-10-17T08:11:40.802Z,97752.47
2022-10-17T08:12:45.730Z,97750.66
2022-10-17T08:13:47.509Z,97755.31
2022-10-17T08:14:49.272Z,97743.38
2022-10-17T08:15:51.151Z,97741.94
2022-10-17T08:16:54.463Z,97749.38
2022-10-17T08:17:56.288Z,97746.13
2022-10-17T08:18:58.135Z,97739.28
2022-10-17T08:19:59.940Z,97744.91
2022-10-17T08:21:02.914Z,97744.28
2022-10-17T08:22:04.730Z,97743.06
2022-10-17T08:23:07.071Z,97740.44
2022-10-17T08:24:08.831Z,97741.03
2022-10-17T08:25:11.040Z,97735.56
2022-10-17T08:26:13.763Z,97742.00
2022-10-17T08:27:15.629Z,97737.94
2022-10-17T08:28:17.360Z,97740.16
2022-10-17T08:29:19.431Z,97734.69
2022-10-17T08:30:21.319Z,97738.50
2022-10-17T08:31:23.711Z,97732.63
2022-10-17T08:32:27.079Z,97735.84
2022-10-17T08:33:28.988Z,97735.41
2022-10-17T08:34:30.794Z,97739.44
2022-10-17T08:35:32.658Z,97735.00
2022-10-17T08:36:34.664Z,97729.31
2022-10-17T08:37:36.635Z,97731.94
2022-10-17T08:38:43.061Z,97724.44
2022-10-17T08:39:45.680Z,97728.63
2022-10-17T08:40:49.230Z,97725.78
2022-10-17T08:42:09.129Z,97732.44
2022-10-17T08:43:10.998Z,97727.56
2022-10-17T08:44:12.823Z,97728.97
2022-10-17T08:45:33.245Z,97728.50
2022-10-17T08:46:37.600Z,97727.72
2022-10-17T08:47:41.560Z,97726.28
2022-10-17T08:48:46.608Z,97727.66
2022-10-17T08:49:52.799Z,97730.69
2022-10-17T08:50:58.233Z,97730.63
2022-10-17T08:52:03.379Z,97724.28
2022-10-17T08:53:15.649Z,97724.00
2022-10-17T08:54:20.675Z,97726.78
2022-10-17T08:55:34.392Z,97725.09
2022-10-17T08:56:48.472Z,97723.06
2022-10-17T08:57:50.897Z,97716.34
2022-10-17T08:58:53.282Z,97726.59
2022-10-17T08:59:55.298Z,97722.50
2022-10-17T09:00:57.037Z,97721.03
2022-10-17T09:02:16.503Z,97719.94
2022-10-17T09:03:18.366Z,97721.13
2022-10-17T09:04:20.201Z,97716.22
2022-10-17T09:05:27.588Z,97723.25
2022-10-17T09:06:33.400Z,97719.72
2022-10-17T09:07:43.879Z,97715.41
2022-10-17T09:08:58.280Z,97716.16
2022-10-17T09:10:20.843Z,97720.31
2022-10-17T09:11:28.402Z,97710.25
2022-10-17T09:12:33.332Z,97717.28
2022-10-17T09:13:42.507Z,97714.78
2022-10-17T09:14:53.330Z,97713.91
2022-10-17T09:15:58.053Z,97709.56
2022-10-17T09:16:59.780Z,97705.22
2022-10-17T09:18:03.783Z,97707.97
2022-10-17T09:19:11.336Z,97705.47
2022-10-17T09:20:16.755Z,97704.38
2022-10-17T09:21:25.616Z,97702.41
2022-10-17T09:22:30.632Z,97698.06
2022-10-17T09:23:42.487Z,97704.84
2022-10-17T09:24:59.745Z,97697.97
2022-10-17T09:26:01.949Z,97708.94
2022-10-17T09:27:03.997Z,97703.31
2022-10-17T09:28:24.571Z,97698.13
2022-10-17T09:29:32.374Z,97699.63
2022-10-17T09:30:45.493Z,97705.25
2022-10-17T09:31:51.649Z,97699.50
2022-10-17T09:32:54.002Z,97698.56
2022-10-17T09:33:57.342Z,97695.34
2022-10-17T09:34:59.199Z,97698.47
2022-10-17T09:36:02.451Z,97698.78
2022-10-17T09:37:08.006Z,97687.03
2022-10-17T09:38:18.128Z,97700.25
2022-10-17T09:39:23.217Z,97695.94
2022-10-17T09:40:27.076Z,97695.16
2022-10-17T09:41:45.003Z,97692.13
2022-10-17T09:42:49.836Z,97685.44
2022-10-17T09:43:54.697Z,97687.69
2022-10-17T09:45:05.335Z,97692.25
2022-10-17T09:46:25.477Z,97692.59
2022-10-17T09:47:30.410Z,97697.63
2022-10-17T09:48:35.200Z,97685.78
2022-10-17T09:49:39.040Z,97694.28
2022-10-17T09:50:41.993Z,97686.44
2022-10-17T09:51:43.996Z,97696.06
2022-10-17T09:52:50.533Z,97697.75
2022-10-17T09:53:56.309Z,97688.28
2022-10-17T09:55:02.296Z,97684.22
2022-10-17T09:56:08.264Z,97688.31
2022-10-17T09:57:11.439Z,97694.53
2022-10-17T09:58:13.331Z,97692.25
2022-10-17T09:59:30.016Z,97702.22
2022-10-17T10:00:39.924Z,97701.31
2022-10-17T10:01:42.306Z,97699.78
2022-10-17T10:02:44.108Z,97697.22
2022-10-17T10:03:46.417Z,97692.78
2022-10-17T10:05:04.601Z,97696.78
2022-10-17T10:06:13.232Z,97693.91
2022-10-17T10:07:15.108Z,97692.38
2022-10-17T10:08:18.454Z,97693.50
2022-10-17T10:09:24.837Z,97703.91
2022-10-17T10:10:28.177Z,97691.28
2022-10-17T10:11:49.064Z,97695.84
2022-10-17T10:13:23.140Z,97692.75
2022-10-17T10:14:30.005Z,97698.41
2022-10-17T10:15:34.135Z,97693.66
2022-10-17T10:16:41.690Z,97694.78
2022-10-17T10:17:43.561Z,97694.34
2022-10-17T10:18:47.485Z,97696.47
2022-10-17T10:19:52.549Z,97698.84
2022-10-17T10:21:08.108Z,97691.44
2022-10-17T10:22:17.303Z,97689.13
2022-10-17T10:23:21.612Z,97688.69
2022-10-17T10:24:29.623Z,97684.56
2022-10-17T10:25:33.286Z,97682.50
2022-10-17T10:26:38.860Z,97685.22
2022-10-17T10:27:41.975Z,97681.56
2022-10-17T10:28:51.102Z,97679.19
2022-10-17T10:29:53.499Z,97681.09
2022-10-17T10:30:56.540Z,97674.72
2022-10-17T10:32:16.542Z,97673.94
2022-10-17T10:33:20.327Z,97672.13
2022-10-17T10:34:22.086Z,97676.44
2022-10-17T10:35:23.838Z,97674.66
2022-10-17T10:36:25.737Z,97679.19
2022-10-17T10:37:27.502Z,97674.97
2022-10-17T10:38:30.576Z,97668.09
2022-10-17T10:39:32.597Z,97662.56
2022-10-17T10:40:57.512Z,97666.31
2022-10-17T10:42:00.839Z,97660.75
2022-10-17T10:43:05.309Z,97663.47
2022-10-17T10:44:14.662Z,97655.25
2022-10-17T10:45:56.958Z,97664.06
2022-10-17T10:46:48.985Z,97650.00
2022-10-17T10:47:57.055Z,97648.72
2022-10-17T10:49:00.536Z,97654.59
2022-10-17T10:50:17.789Z,97654.88
2022-10-17T10:51:23.410Z,97652.28
2022-10-17T10:52:32.900Z,97650.44
2022-10-17T10:53:37.544Z,97645.13
2022-10-17T10:54:42.694Z,97648.34
2022-10-17T10:55:48.393Z,97647.03
2022-10-17T10:56:53.582Z,97644.66
2022-10-17T10:57:58.565Z,97646.28
2022-10-17T10:59:09.390Z,97645.00
2022-10-17T11:00:16.661Z,97639.72
2022-10-17T11:01:27.995Z,97642.66
2022-10-17T11:02:43.437Z,97636.31
2022-10-17T11:03:48.025Z,97633.91
2022-10-17T11:04:58.904Z,97631.25
2022-10-17T11:06:20.977Z,97636.31
2022-10-17T11:07:39.301Z,97638.00
2022-10-17T11:08:41.095Z,97639.84
2022-10-17T11:09:45.797Z,97639.06
2022-10-17T11:10:59.620Z,97637.19
2022-10-17T11:12:12.376Z,97634.28
2022-10-17T11:13:16.851Z,97639.06
2022-10-17T11:14:21.474Z,97633.19
2022-10-17T11:15:30.534Z,97630.53
2022-10-17T11:16:32.888Z,97629.22
2022-10-17T11:17:36.814Z,97631.59
2022-10-17T11:18:41.381Z,97634.78
2022-10-17T11:19:45.803Z,97631.88
2022-10-17T11:21:00.621Z,97628.91
2022-10-17T11:22:11.787Z,97628.41
2022-10-17T11:23:21.861Z,97626.28
2022-10-17T11:24:33.344Z,97626.78
2022-10-17T11:25:36.649Z,97629.69
2022-10-17T11:26:45.390Z,97624.59
2022-10-17T11:27:47.210Z,97625.91
2022-10-17T11:28:49.194Z,97625.09
2022-10-17T11:29:51.454Z,97626.16
2022-10-17T11:31:13.184Z,97622.38
2022-10-17T11:32:17.718Z,97620.22
2022-10-17T11:33:42.699Z,97624.47
2022-10-17T11:34:46.943Z,97620.19
2022-10-17T11:35:52.127Z,97618.56
2022-10-17T11:37:02.916Z,97618.28
2022-10-17T11:38:23.179Z,97619.84
2022-10-17T11:39:42.477Z,97623.09
2022-10-17T11:40:46.267Z,97618.28
2022-10-17T11:42:03.511Z,97615.34
2022-10-17T11:43:12.342Z,97615.28
2022-10-17T11:44:28.027Z,97619.78
2022-10-17T11:45:33.986Z,97609.88
2022-10-17T11:46:36.643Z,97612.00
2022-10-17T11:47:46.603Z,97608.50
2022-10-17T11:48:48.524Z,97614.91
2022-10-17T11:49:56.534Z,97612.75
2022-10-17T11:52:59.808Z,97610.53
2022-10-17T11:54:30.961Z,97605.16
2022-10-17T11:55:34.533Z,97610.50
2022-10-17T11:56:45.195Z,97611.81
2022-10-17T11:57:55.371Z,97603.75
2022-10-17T11:59:03.166Z,97609.31
2022-10-17T12:00:10.960Z,97613.53
2022-10-17T12:01:18.423Z,97607.63
2022-10-17T12:02:29.425Z,97603.06
2022-10-17T12:03:50.791Z,97606.75
2022-10-17T12:05:07.232Z,97612.00
2022-10-17T12:06:14.722Z,97615.97
2022-10-17T12:07:27.578Z,97610.09
2022-10-17T12:08:32.548Z,97613.59
2022-10-17T12:09:53.599Z,97600.78
2022-10-17T12:11:02.396Z,97602.09
2022-10-17T12:12:04.519Z,97594.88
2022-10-17T12:13:24.957Z,97600.22
2022-10-17T12:14:35.380Z,97597.56
2022-10-17T12:15:37.201Z,97591.09
2022-10-17T12:16:43.314Z,97599.66
2022-10-17T12:17:46.266Z,97597.84
2022-10-17T12:19:10.840Z,97599.16
2022-10-17T12:20:21.741Z,97596.81
2022-10-17T12:21:25.540Z,97591.47
2022-10-17T12:22:30.274Z,97601.41
2022-10-17T12:23:32.569Z,97600.59
2022-10-17T12:24:39.573Z,97597.63
2022-10-17T12:25:57.132Z,97588.47
2022-10-17T12:27:21.843Z,97591.13
2022-10-17T12:28:39.451Z,97595.91
2022-10-17T12:29:41.841Z,97587.91
2022-10-17T12:30:55.826Z,97593.97
2022-10-17T12:32:10.678Z,97593.25
2022-10-17T12:33:12.506Z,97584.75
2022-10-17T12:34:18.132Z,97589.81
2022-10-17T12:35:21.776Z,97587.38
2022-10-17T12:36:23.531Z,97586.81
2022-10-17T12:37:43.713Z,97587.28
2022-10-17T12:38:50.000Z,97587.72
2022-10-17T12:39:52.193Z,97593.31
2022-10-17T12:40:55.616Z,97590.88
2022-10-17T12:41:57.395Z,97587.09
2022-10-17T12:42:59.290Z,97590.03
2022-10-17T12:44:01.149Z,97596.25
2022-10-17T12:45:03.010Z,97586.69
2022-10-17T12:46:05.313Z,97591.81
2022-10-17T12:47:09.939Z,97594.72
2022-10-17T12:48:11.940Z,97585.31
2022-10-17T12:49:22.888Z,97598.94
2022-10-17T12:50:54.073Z,97591.94
2022-10-17T12:52:14.300Z,97588.16
2022-10-17T12:53:19.260Z,97586.22
2022-10-17T12:54:22.130Z,97592.31
2022-10-17T12:55:25.374Z,97591.22
2022-10-17T12:56:32.067Z,97591.28
2022-10-17T12:57:36.363Z,97592.44
2022-10-17T12:58:43.419Z,97599.94
2022-10-17T12:59:45.521Z,97601.56
2022-10-17T13:02:22.291Z,97594.78
2022-10-17T13:03:26.681Z,97591.88
2022-10-17T13:04:30.043Z,97596.34
2022-10-17T13:05:34.522Z,97590.75
2022-10-17T13:06:40.596Z,97596.63
2022-10-17T13:07:44.445Z,97583.38
2022-10-17T13:08:53.526Z,97592.25
2022-10-17T13:09:56.739Z,97585.53
2022-10-17T13:10:58.894Z,97587.38
2022-10-17T13:12:03.732Z,97595.59
2022-10-17T13:13:08.588Z,97597.16
2022-10-17T13:14:14.695Z,97593.19
2022-10-17T13:15:18.091Z,97598.00
2022-10-17T13:16:36.381Z,97593.97
2022-10-17T13:17:40.689Z,97595.09
2022-10-17T13:18:52.516Z,97594.31
2022-10-17T13:19:54.794Z,97589.25
2022-10-17T13:20:58.130Z,97602.94
2022-10-17T13:22:06.519Z,97597.13
2022-10-17T13:23:22.423Z,97597.69
2022-10-17T13:24:30.180Z,97598.25
2022-10-17T13:25:31.994Z,97607.63
2022-10-17T13:26:33.913Z,97603.91
2022-10-17T13:27:36.197Z,97603.13
2022-10-17T13:28:39.582Z,97603.66
2022-10-17T13:29:44.637Z,97598.13
2022-10-17T13:30:49.361Z,97605.81
2022-10-17T13:31:54.565Z,97604.25
2022-10-17T13:32:56.943Z,97598.94
2022-10-17T13:34:00.140Z,97604.53
2022-10-17T13:35:07.352Z,97611.75
2022-10-17T13:36:15.943Z,97605.63
2022-10-17T13:37:25.327Z,97610.72
2022-10-17T13:38:28.944Z,97606.94
2022-10-17T13:40:02.951Z,97601.56
2022-10-17T13:41:29.961Z,97608.75
2022-10-17T13:42:28.118Z,97611.38
2022-10-17T13:43:31.442Z,97609.50
2022-10-17T13:44:34.725Z,97610.56
2022-10-17T13:45:38.149Z,97612.44
2022-10-17T13:46:40.307Z,97611.66
2022-10-17T13:47:42.247Z,97608.47
2022-10-17T13:48:44.156Z,97614.06
2022-10-17T13:49:45.908Z,97606.25
2022-10-17T13:50:50.470Z,97610.78
2022-10-17T13:51:53.462Z,97609.94
2022-10-17T13:53:07.443Z,97617.16
2022-10-17T13:54:19.370Z,97614.25
2022-10-17T13:55:22.340Z,97617.25
2022-10-17T13:56:28.854Z,97616.44
2022-10-17T13:57:32.197Z,97618.03
2022-10-17T13:58:42.518Z,97619.63
2022-10-17T13:59:47.877Z,97615.63
2022-10-17T14:00:52.805Z,97615.91
2022-10-17T14:01:56.172Z,97622.59
2022-10-17T14:02:58.006Z,97625.44
2022-10-17T14:04:09.404Z,97624.31
2022-10-17T14:05:18.549Z,97619.81
2022-10-17T14:06:22.722Z,97618.03
2022-10-17T14:09:23.814Z,97613.81
2022-10-17T14:10:27.437Z,97621.31
2022-10-17T14:11:29.379Z,97622.47
2022-10-17T14:12:31.189Z,97618.78
2022-10-17T14:13:34.357Z,97622.31
2022-10-17T14:14:57.956Z,97618.88
2022-10-17T14:16:00.469Z,97628.00
2022-10-17T14:17:02.430Z,97630.16
2022-10-17T14:18:08.356Z,97630.69
2022-10-17T14:19:24.817Z,97633.06
2022-10-17T14:21:53.765Z,97631.09
2022-10-17T14:23:21.996Z,97632.34
2022-10-17T14:24:23.833Z,97635.81
2022-10-17T14:25:28.796Z,97635.25
2022-10-17T14:26:30.648Z,97638.25
2022-10-17T14:27:32.811Z,97642.38
2022-10-17T14:28:35.641Z,97637.66
2022-10-17T14:29:53.420Z,97645.22
2022-10-17T14:30:57.482Z,97641.53
2022-10-17T14:31:59.575Z,97641.84
2022-10-17T14:33:03.748Z,97642.41
2022-10-17T14:34:06.038Z,97640.28
2022-10-17T14:35:37.366Z,97646.13
2022-10-17T14:36:40.362Z,97651.72
2022-10-17T14:37:47.936Z,97646.69
2022-10-17T14:38:52.476Z,97643.78
2022-10-17T14:39:55.575Z,97646.50
2022-10-17T14:41:23.562Z,97648.66
2022-10-17T14:42:24.189Z,97640.13
2022-10-17T14:43:28.631Z,97641.75
2022-10-17T14:44:32.130Z,97652.91
2022-10-17T14:45:35.409Z,97647.06
2022-10-17T14:46:39.129Z,97661.16
2022-10-17T14:47:43.994Z,97657.44
2022-10-17T14:48:47.976Z,97657.16
2022-10-17T14:49:51.266Z,97648.63
2022-10-17T14:51:11.473Z,97657.63
2022-10-17T14:52:18.286Z,97660.78
2022-10-17T14:53:21.856Z,97657.06
2022-10-17T14:54:26.252Z,97661.06
2022-10-17T14:55:29.000Z,97667.94
2022-10-17T14:56:41.477Z,97667.34
2022-10-17T14:57:44.813Z,97662.28
2022-10-17T14:58:46.630Z,97660.16
2022-10-17T14:59:55.906Z,97662.25
2022-10-17T15:00:58.378Z,97666.75
2022-10-17T15:02:00.155Z,97663.53
2022-10-17T15:03:02.037Z,97671.72
2022-10-17T15:04:04.099Z,97666.59
2022-10-17T15:05:09.497Z,97663.88
2022-10-17T15:06:44.001Z,97663.84
2022-10-17T15:07:46.423Z,97666.72
2022-10-17T15:08:48.270Z,97674.91
2022-10-17T15:09:50.809Z,97667.16
2022-10-17T15:10:53.089Z,97668.19
2022-10-17T15:12:01.093Z,97672.41
2022-10-17T15:13:26.706Z,97681.13
2022-10-17T15:14:25.600Z,97677.38
2022-10-17T15:15:31.473Z,97681.84
2022-10-17T15:16:34.478Z,97682.34
2022-10-17T15:17:36.361Z,97682.31
2022-10-17T15:18:38.319Z,97686.75
2022-10-17T15:19:40.115Z,97681.38
2022-10-17T15:20:42.003Z,97677.63
2022-10-17T15:21:47.188Z,97684.75
2022-10-17T15:22:49.622Z,97685.00
2022-10-17T15:23:51.965Z,97685.75
2022-10-17T15:24:53.806Z,97683.34
2022-10-17T15:25:55.583Z,97692.88
2022-10-17T15:26:57.461Z,97686.47
2022-10-17T15:27:59.352Z,97686.16
2022-10-17T15:29:01.752Z,97686.38
2022-10-17T15:30:03.883Z,97686.09
2022-10-17T15:31:05.858Z,97702.50
2022-10-17T15:32:07.689Z,97695.56
2022-10-17T15:33:09.558Z,97695.75
2022-10-17T15:34:11.430Z,97693.81
2022-10-17T15:35:13.313Z,97699.09
2022-10-17T15:36:28.401Z,97694.53
2022-10-17T15:37:33.677Z,97701.09
2022-10-17T15:38:35.486Z,97701.34
2022-10-17T15:39:37.325Z,97705.31
2022-10-17T15:40:41.769Z,97700.16
2022-10-17T15:41:44.564Z,97701.16
2022-10-17T15:42:46.515Z,97696.81
2022-10-17T15:43:48.953Z,97694.91
2022-10-17T15:44:50.910Z,97703.59
2022-10-17T15:45:52.912Z,97707.53
2022-10-17T15:46:56.026Z,97705.91
2022-10-17T15:48:00.838Z,97706.41
2022-10-17T15:49:04.310Z,97711.63
2022-10-17T15:50:06.943Z,97712.94
2022-10-17T15:51:09.323Z,97716.78
2022-10-17T15:52:11.204Z,97711.19
2022-10-17T15:53:13.152Z,97714.66
2022-10-17T15:54:15.049Z,97714.56
2022-10-17T15:55:17.474Z,97718.25
2022-10-17T15:56:22.359Z,97718.72
2022-10-17T15:57:28.889Z,97716.25
2022-10-17T15:58:36.062Z,97714.34
2022-10-17T15:59:37.927Z,97716.91
2022-10-17T16:00:39.781Z,97721.06
2022-10-17T16:01:42.137Z,97718.91
2022-10-17T16:02:44.341Z,97716.75
2022-10-17T16:03:47.870Z,97722.72
2022-10-17T16:04:50.368Z,97728.50
2022-10-17T16:05:52.243Z,97728.16
2022-10-17T16:06:54.195Z,97731.75
2022-10-17T16:07:56.284Z,97732.81
2022-10-17T16:08:58.172Z,97730.06
2022-10-17T16:09:59.979Z,97735.75
2022-10-17T16:11:01.837Z,97731.75
2022-10-17T16:12:05.375Z,97739.91
2022-10-17T16:13:07.131Z,97734.84
2022-10-17T16:14:13.368Z,97739.84
2022-10-17T16:15:16.912Z,97744.81
2022-10-17T16:16:18.817Z,97735.88
2022-10-17T16:17:20.603Z,97734.19
2022-10-17T16:18:22.458Z,97735.22
2022-10-17T16:19:24.373Z,97739.38
2022-10-17T16:20:26.212Z,97739.03
2022-10-17T16:22:40.923Z,97747.66
2022-10-17T16:23:42.950Z,97747.91
2022-10-17T16:24:44.905Z,97750.69
2022-10-17T16:25:46.790Z,97752.19
2022-10-17T16:26:48.671Z,97757.47
2022-10-17T16:27:51.759Z,97750.00
2022-10-17T16:28:53.673Z,97760.84
2022-10-17T16:29:55.598Z,97757.59
2022-10-17T16:30:57.930Z,97758.84
2022-10-17T16:31:59.769Z,97764.25
2022-10-17T16:33:01.537Z,97758.53
2022-10-17T16:34:04.117Z,97752.34
2022-10-17T16:35:06.606Z,97753.59
2022-10-17T16:36:08.437Z,97761.41
2022-10-17T16:37:10.335Z,97763.47
2022-10-17T16:38:12.172Z,97759.69
2022-10-17T16:39:14.026Z,97754.41
2022-10-17T16:40:16.318Z,97758.09
2022-10-17T16:41:18.099Z,97762.00
2022-10-17T16:42:22.983Z,97758.78
2022-10-17T16:43:24.814Z,97763.72
2022-10-17T16:44:26.685Z,97764.75
2022-10-17T16:45:28.641Z,97771.06
2022-10-17T16:46:31.447Z,97770.16
2022-10-17T16:47:33.277Z,97766.69
2022-10-17T16:48:35.166Z,97765.31
2022-10-17T16:49:40.364Z,97772.31
2022-10-17T16:50:44.782Z,97770.16
2022-10-17T16:51:46.527Z,97766.34
2022-10-17T16:52:48.349Z,97763.94
2022-10-17T16:53:51.198Z,97766.00
2022-10-17T16:54:53.766Z,97770.72
2022-10-17T16:56:02.178Z,97766.91
2022-10-17T16:57:04.209Z,97773.22
2022-10-17T16:58:06.061Z,97770.81
2022-10-17T16:59:08.095Z,97778.16
2022-10-17T17:00:12.621Z,97782.88
2022-10-17T17:01:16.316Z,97783.09
2022-10-17T17:02:21.190Z,97785.94
2022-10-17T17:03:23.405Z,97785.59
2022-10-17T17:04:25.299Z,97782.38
2022-10-17T17:05:27.309Z,97789.69
2022-10-17T17:06:30.040Z,97791.41
2022-10-17T17:07:32.640Z,97790.00
2022-10-17T17:08:37.481Z,97788.84
2022-10-17T17:09:40.005Z,97789.91
2022-10-17T17:10:46.326Z,97791.97
2022-10-17T17:11:48.189Z,97783.69
2022-10-17T17:12:50.083Z,97796.28
2022-10-17T17:13:52.636Z,97792.03
2022-10-17T17:14:54.563Z,97794.56
2022-10-17T17:16:07.145Z,97791.56
2022-10-17T17:17:15.408Z,97789.97
2022-10-17T17:18:26.978Z,97796.94
2022-10-17T17:19:30.150Z,97793.94
2022-10-17T17:20:33.019Z,97795.63
2022-10-17T17:21:35.141Z,97794.59
2022-10-17T17:22:37.409Z,97806.63
2022-10-17T17:23:40.772Z,97803.03
2022-10-17T17:24:43.017Z,97802.47
2022-10-17T17:25:46.099Z,97804.50
2022-10-17T17:26:53.031Z,97804.72
2022-10-17T17:27:55.089Z,97804.94
2022-10-17T17:28:58.847Z,97803.34
2022-10-17T17:30:00.883Z,97800.94
2022-10-17T17:31:06.197Z,97805.63
2022-10-17T17:32:08.422Z,97806.66
2022-10-17T17:33:11.799Z,97801.00
2022-10-17T17:34:17.176Z,97807.75
2022-10-17T17:35:21.524Z,97810.81
2022-10-17T17:36:25.171Z,97814.72
2022-10-17T17:37:27.744Z,97820.78
2022-10-17T17:38:31.150Z,97815.13
2022-10-17T17:39:34.071Z,97818.22
2022-10-17T17:40:36.285Z,97817.66
2022-10-17T17:41:38.917Z,97823.34
2022-10-17T17:42:40.908Z,97818.53
2022-10-17T17:43:43.462Z,97815.94
2022-10-17T17:44:45.462Z,97823.47
2022-10-17T17:45:47.703Z,97820.25
2022-10-17T17:46:49.664Z,97817.59
2022-10-17T17:47:52.407Z,97820.25
2022-10-17T17:48:55.228Z,97825.72
2022-10-17T17:49:57.283Z,97822.72
2022-10-17T17:51:03.675Z,97830.03
2022-10-17T17:52:05.849Z,97826.50
2022-10-17T17:53:08.602Z,97834.84
2022-10-17T17:54:11.830Z,97831.63
2022-10-17T17:55:14.037Z,97829.00
2022-10-17T17:56:17.630Z,97831.63
2022-10-17T17:57:19.959Z,97831.03
2022-10-17T17:58:21.922Z,97828.41
2022-10-17T17:59:25.189Z,97835.13
2022-10-17T18:00:27.215Z,97829.84
2022-10-17T18:01:30.590Z,97832.50
2022-10-17T18:02:32.836Z,97832.31
2022-10-17T18:03:34.807Z,97833.31
2022-10-17T18:04:36.568Z,97833.31